createdAt,value
2018-07-21T00:01:13.635Z,100858.45
2018-07-21T00:03:41.298Z,100852.92
2018-07-21T00:06:09.017Z,100847.51
2018-07-21T00:08:36.697Z,100850.72
2018-07-21T00:11:04.381Z,100849.19
2018-07-21T00:13:32.062Z,100846.83
2018-07-21T00:15:59.706Z,100850.19
2018-07-21T00:18:27.377Z,100849.52
2018-07-21T00:20:55.106Z,100847.17
2018-07-21T00:23:22.789Z,100847.50
2018-07-21T00:25:50.466Z,100848.02
2018-07-21T00:28:18.155Z,100847.37
2018-07-21T00:30:45.909Z,100843.83
2018-07-21T00:33:13.553Z,100846.34
2018-07-21T00:35:41.214Z,100844.99
2018-07-21T00:38:08.866Z,100845.15
2018-07-21T00:40:36.528Z,100845.30
2018-07-21T00:43:04.252Z,100845.44
2018-07-21T00:45:31.965Z,100844.23
2018-07-21T00:47:59.696Z,100844.41
2018-07-21T00:50:27.356Z,100847.09
2018-07-21T00:52:55.014Z,100849.09
2018-07-21T00:55:22.694Z,100842.95
2018-07-21T00:57:50.356Z,100845.06
2018-07-21T01:00:18.029Z,100838.02
2018-07-21T01:02:45.713Z,100832.19
2018-07-21T01:05:13.397Z,100831.84
2018-07-21T01:07:41.065Z,100823.26
2018-07-21T01:10:08.773Z,100831.70
2018-07-21T01:12:36.795Z,100822.10
2018-07-21T01:15:05.649Z,100822.63
2018-07-21T01:17:33.367Z,100825.98
2018-07-21T01:20:01.014Z,100826.98
2018-07-21T01:22:28.693Z,100823.97
2018-07-21T01:24:56.365Z,100822.59
2018-07-21T01:27:24.042Z,100821.61
2018-07-21T01:29:51.715Z,100818.92
2018-07-21T01:32:19.535Z,100825.22
2018-07-21T01:34:47.233Z,100824.45
2018-07-21T01:37:14.901Z,100826.10
2018-07-21T01:39:42.587Z,100828.80
2018-07-21T01:42:10.242Z,100827.47
2018-07-21T01:44:37.918Z,100829.52
2018-07-21T01:47:05.737Z,100829.66
2018-07-21T01:49:33.405Z,100824.25
2018-07-21T01:52:01.062Z,100829.59
2018-07-21T01:54:28.732Z,100822.91
2018-07-21T01:56:56.385Z,100820.22
2018-07-21T01:59:24.073Z,100819.87
2018-07-21T02:01:51.747Z,100818.53
2018-07-21T02:04:19.405Z,100786.02
2018-07-21T02:06:47.081Z,100813.98
2018-07-21T02:09:14.744Z,100801.39
2018-07-21T02:11:42.474Z,100796.21
2018-07-21T02:14:10.137Z,100788.48
2018-07-21T02:16:37.812Z,100626.87
2018-07-21T02:19:05.472Z,100789.48
2018-07-21T02:21:33.385Z,100785.27
2018-07-21T02:24:01.038Z,100782.05
2018-07-21T02:26:28.708Z,100782.13
2018-07-21T02:28:56.374Z,100781.09
2018-07-21T02:31:24.068Z,100784.46
2018-07-21T02:33:51.823Z,100789.83
2018-07-21T02:36:19.504Z,100792.43
2018-07-21T02:38:47.174Z,100798.95
2018-07-21T02:41:14.945Z,100803.45
2018-07-21T02:43:42.616Z,100805.40
2018-07-21T02:46:10.358Z,100799.66
2018-07-21T02:48:38.230Z,100799.84
2018-07-21T02:51:06.027Z,100790.95
2018-07-21T02:53:33.690Z,100796.66
2018-07-21T02:56:01.404Z,100788.28
2018-07-21T02:58:29.106Z,100791.12
2018-07-21T03:00:56.803Z,100797.16
2018-07-21T03:03:24.477Z,100796.97
2018-07-21T03:05:52.150Z,100799.36
2018-07-21T03:08:19.823Z,100800.45
2018-07-21T03:10:47.527Z,100796.13
2018-07-21T03:13:15.183Z,100794.45
2018-07-21T03:15:42.952Z,100801.74
2018-07-21T03:18:10.638Z,100801.42
2018-07-21T03:20:38.339Z,100798.42
2018-07-21T03:23:06.209Z,100802.48
2018-07-21T03:25:34.817Z,100805.38
2018-07-21T03:28:02.495Z,100800.04
2018-07-21T03:30:30.179Z,100799.35
2018-07-21T03:32:58.004Z,100798.36
2018-07-21T03:35:25.721Z,100796.03
2018-07-21T03:37:53.374Z,100796.91
2018-07-21T03:40:21.040Z,100788.58
2018-07-21T03:42:48.690Z,100789.89
2018-07-21T03:45:16.399Z,100792.63
2018-07-21T03:47:44.042Z,100790.91
2018-07-21T03:50:11.696Z,100789.78
2018-07-21T03:52:39.341Z,100780.51
2018-07-21T03:55:07.044Z,100781.41
2018-07-21T03:57:34.701Z,100778.38
2018-07-21T04:00:02.489Z,100773.83
2018-07-21T04:02:30.188Z,100774.68
2018-07-21T04:04:57.895Z,100774.92
2018-07-21T04:07:25.545Z,100771.76
2018-07-21T04:09:53.221Z,100777.05
2018-07-21T04:12:20.892Z,100771.45
2018-07-21T04:14:48.582Z,100775.23
2018-07-21T04:17:24.791Z,100774.55
2018-07-21T04:19:52.547Z,100770.50
2018-07-21T04:22:20.413Z,100770.16
2018-07-21T04:24:48.114Z,100767.45
2018-07-21T04:27:15.830Z,100760.48
2018-07-21T04:29:43.505Z,100757.16
2018-07-21T04:32:11.294Z,100751.14
2018-07-21T04:34:39.057Z,100748.63
2018-07-21T04:37:06.748Z,100741.25
2018-07-21T04:39:34.488Z,100740.78
2018-07-21T04:42:02.185Z,100737.42
2018-07-21T04:44:29.872Z,100739.86
2018-07-21T04:46:57.530Z,100737.63
2018-07-21T04:49:25.257Z,100739.64
2018-07-21T04:51:52.948Z,100735.78
2018-07-21T04:54:20.628Z,100735.42
2018-07-21T04:56:48.279Z,100728.94
2018-07-21T04:59:16.047Z,100728.23
2018-07-21T05:01:43.761Z,100731.25
2018-07-21T05:04:11.435Z,100732.52
2018-07-21T05:06:39.164Z,100733.88
2018-07-21T05:09:09.045Z,100739.34
2018-07-21T05:11:37.103Z,100740.63
2018-07-21T05:14:05.241Z,100736.61
2018-07-21T05:16:32.943Z,100741.10
2018-07-21T05:19:00.634Z,100738.63
2018-07-21T05:21:28.297Z,100742.33
2018-07-21T05:23:55.962Z,100739.85
2018-07-21T05:26:23.679Z,100748.23
2018-07-21T05:28:51.378Z,100747.56
2018-07-21T05:31:19.065Z,100739.21
2018-07-21T05:33:46.776Z,100738.70
2018-07-21T05:36:14.466Z,100729.14
2018-07-21T05:38:42.254Z,100728.48
2018-07-21T05:41:10.121Z,100723.26
2018-07-21T05:43:37.797Z,100715.20
2018-07-21T05:46:05.481Z,100712.38
2018-07-21T05:48:33.140Z,100704.52
2018-07-21T05:51:00.828Z,100712.91
2018-07-21T05:53:28.497Z,100703.64
2018-07-21T05:55:56.142Z,100704.11
2018-07-21T05:58:23.789Z,100705.48
2018-07-21T06:00:51.501Z,100708.00
2018-07-21T06:03:19.177Z,100710.52
2018-07-21T06:05:46.844Z,100709.14
2018-07-21T06:08:14.519Z,100712.02
2018-07-21T06:10:42.229Z,100703.56
2018-07-21T06:13:09.919Z,100706.98
2018-07-21T06:15:38.054Z,100707.64
2018-07-21T06:18:05.777Z,100709.80
2018-07-21T06:20:33.457Z,100710.16
2018-07-21T06:23:01.139Z,100706.57
2018-07-21T06:25:28.821Z,100706.81
2018-07-21T06:27:56.846Z,100703.93
2018-07-21T06:30:24.570Z,100707.28
2018-07-21T06:32:52.316Z,100698.34
2018-07-21T06:35:20.057Z,100704.53
2018-07-21T06:37:47.807Z,100697.38
2018-07-21T06:40:15.477Z,100690.38
2018-07-21T06:42:43.141Z,100688.55
2018-07-21T06:45:10.953Z,100689.75
2018-07-21T06:47:38.614Z,100691.92
2018-07-21T06:50:06.697Z,100687.07
2018-07-21T06:52:34.413Z,100688.42
2018-07-21T06:55:02.105Z,100683.53
2018-07-21T06:57:29.791Z,100682.86
2018-07-21T06:59:57.469Z,100679.34
2018-07-21T07:02:25.138Z,100686.34
2018-07-21T07:04:52.831Z,100680.97
2018-07-21T07:07:20.509Z,100681.48
2018-07-21T07:09:48.174Z,100684.66
2018-07-21T07:12:15.881Z,100678.33
2018-07-21T07:14:44.002Z,100683.66
2018-07-21T07:17:11.796Z,100681.17
2018-07-21T07:19:39.446Z,100688.08
2018-07-21T07:22:07.169Z,100678.02
2018-07-21T07:24:34.890Z,100680.88
2018-07-21T07:27:02.606Z,100685.73
2018-07-21T07:29:30.277Z,100684.53
2018-07-21T07:31:57.988Z,100684.58
2018-07-21T07:34:25.776Z,100687.94
2018-07-21T07:36:53.545Z,100691.78
2018-07-21T07:39:21.233Z,100698.48
2018-07-21T07:41:48.921Z,100701.33
2018-07-21T07:44:16.586Z,100709.25
2018-07-21T07:46:44.246Z,100710.45
2018-07-21T07:49:11.924Z,100702.38
2018-07-21T07:51:39.617Z,100704.55
2018-07-21T07:54:07.309Z,100703.09
2018-07-21T07:56:35.038Z,100706.64
2018-07-21T07:59:02.717Z,100707.30
2018-07-21T08:01:30.366Z,100707.13
2018-07-21T08:03:58.014Z,100715.30
2018-07-21T08:06:25.741Z,100708.58
2018-07-21T08:08:53.409Z,100709.25
2018-07-21T08:11:21.105Z,100702.72
2018-07-21T08:13:48.836Z,100702.08
2018-07-21T08:16:16.532Z,100693.53
2018-07-21T08:18:44.217Z,100691.67
2018-07-21T08:21:12.237Z,100695.21
2018-07-21T08:23:39.930Z,100690.11
2018-07-21T08:26:07.642Z,100689.43
2018-07-21T08:28:35.354Z,100694.47
2018-07-21T08:31:03.042Z,100685.92
2018-07-21T08:33:30.712Z,100687.76
2018-07-21T08:35:58.393Z,100685.74
2018-07-21T08:38:26.112Z,100694.87
2018-07-21T08:40:53.782Z,100698.57
2018-07-21T08:43:21.514Z,100688.30
2018-07-21T08:45:49.231Z,100694.54
2018-07-21T08:48:16.934Z,100693.68
2018-07-21T08:50:44.609Z,100700.41
2018-07-21T08:53:12.315Z,100701.92
2018-07-21T08:55:40.084Z,100710.48
2018-07-21T08:58:07.754Z,100709.66
2018-07-21T09:00:35.449Z,100712.02
2018-07-21T09:03:03.146Z,100712.34
2018-07-21T09:05:30.792Z,100696.89
2018-07-21T09:07:58.478Z,100690.51
2018-07-21T09:10:26.165Z,100685.47
2018-07-21T09:12:53.853Z,100672.18
2018-07-21T09:15:21.585Z,100665.97
2018-07-21T09:17:49.245Z,100673.53
2018-07-21T09:20:16.957Z,100676.67
2018-07-21T09:22:44.685Z,100673.98
2018-07-21T09:25:12.374Z,100677.52
2018-07-21T09:27:40.059Z,100662.90
2018-07-21T09:30:07.786Z,100663.09
2018-07-21T09:32:35.466Z,100653.01
2018-07-21T09:35:03.226Z,100644.97
2018-07-21T09:37:30.928Z,100646.49
2018-07-21T09:39:58.609Z,100648.32
2018-07-21T09:42:26.273Z,100636.22
2018-07-21T09:44:53.930Z,100642.93
2018-07-21T09:47:21.594Z,100644.28
2018-07-21T09:49:49.293Z,100647.84
2018-07-21T09:52:16.995Z,100643.97
2018-07-21T09:54:44.854Z,100658.25
2018-07-21T09:57:12.535Z,100658.86
2018-07-21T09:59:40.257Z,100668.95
2018-07-21T10:02:08.010Z,100677.68
2018-07-21T10:04:35.710Z,100677.00
2018-07-21T10:07:03.478Z,100676.00
2018-07-21T10:09:31.152Z,100671.17
2018-07-21T10:11:58.825Z,100667.31
2018-07-21T10:14:26.629Z,100661.24
2018-07-21T10:16:54.366Z,100655.70
2018-07-21T10:19:22.121Z,100649.30
2018-07-21T10:21:49.873Z,100640.73
2018-07-21T10:24:23.073Z,100638.34
2018-07-21T10:26:56.281Z,100632.25
2018-07-21T10:29:23.946Z,100629.87
2018-07-21T10:31:51.609Z,100634.59
2018-07-21T10:34:19.316Z,100629.41
2018-07-21T10:36:47.001Z,100633.25
2018-07-21T10:39:14.833Z,100622.84
2018-07-21T10:41:42.595Z,100624.49
2018-07-21T10:44:10.269Z,100617.78
2018-07-21T10:46:37.930Z,100608.67
2018-07-21T10:49:06.595Z,100611.71
2018-07-21T10:51:34.333Z,100613.16
2018-07-21T10:54:02.027Z,100611.60
2018-07-21T10:56:29.764Z,100607.88
2018-07-21T10:58:57.437Z,100608.73
2018-07-21T11:01:25.156Z,100609.69
2018-07-21T11:03:52.833Z,100614.75
2018-07-21T11:06:20.531Z,100612.03
2018-07-21T11:08:48.266Z,100615.22
2018-07-21T11:11:15.943Z,100613.48
2018-07-21T11:13:44.541Z,100605.44
2018-07-21T11:16:12.217Z,100607.84
2018-07-21T11:18:39.907Z,100613.20
2018-07-21T11:21:07.780Z,100608.84
2018-07-21T11:23:35.422Z,100606.27
2018-07-21T11:26:03.114Z,100604.91
2018-07-21T11:28:31.133Z,100608.44
2018-07-21T11:30:58.871Z,100615.53
2018-07-21T11:33:26.553Z,100613.54
2018-07-21T11:35:54.483Z,100631.75
2018-07-21T11:38:22.046Z,100644.20
2018-07-21T11:40:49.787Z,100646.84
2018-07-21T11:43:17.432Z,100663.50
2018-07-21T11:45:45.126Z,100669.58
2018-07-21T11:48:12.834Z,100663.58
2018-07-21T11:50:40.530Z,100667.44
2018-07-21T11:53:08.219Z,100676.88
2018-07-21T11:55:35.866Z,100675.58
2018-07-21T11:58:03.560Z,100673.63
2018-07-21T12:00:31.229Z,100662.52
2018-07-21T12:02:58.901Z,100644.24
2018-07-21T12:05:26.840Z,100642.32
2018-07-21T12:07:54.753Z,100634.78
2018-07-21T12:10:22.582Z,100633.87
2018-07-21T12:12:50.439Z,100636.45
2018-07-21T12:15:18.162Z,100634.53
2018-07-21T12:17:45.849Z,100625.25
2018-07-21T12:20:13.632Z,100626.83
2018-07-21T12:22:41.281Z,100614.90
2018-07-21T12:25:08.941Z,100613.73
2018-07-21T12:27:36.738Z,100612.40
2018-07-21T12:30:04.461Z,100602.08
2018-07-21T12:32:32.130Z,100602.08
2018-07-21T12:34:59.844Z,100588.81
2018-07-21T12:37:27.510Z,100587.12
2018-07-21T12:39:55.207Z,100581.91
2018-07-21T12:42:22.949Z,100586.81
2018-07-21T12:44:50.642Z,100580.10
2018-07-21T12:47:18.403Z,100586.83
2018-07-21T12:49:46.048Z,100578.08
2018-07-21T12:52:13.726Z,100577.39
2018-07-21T12:54:41.401Z,100572.34
2018-07-21T12:57:09.640Z,100568.66
2018-07-21T12:59:37.360Z,100569.01
2018-07-21T13:02:05.100Z,100567.42
2018-07-21T13:04:32.871Z,100525.16
2018-07-21T13:07:00.589Z,100577.06
2018-07-21T13:09:28.303Z,100561.59
2018-07-21T13:11:56.038Z,100567.94
2018-07-21T13:14:23.791Z,100562.87
2018-07-21T13:16:51.502Z,100570.75
2018-07-21T13:19:19.257Z,100564.52
2018-07-21T13:21:46.984Z,100560.81
2018-07-21T13:24:14.724Z,100558.09
2018-07-21T13:26:42.601Z,100553.72
2018-07-21T13:29:10.379Z,100551.08
2018-07-21T13:31:38.131Z,100550.73
2018-07-21T13:34:05.934Z,100552.43
2018-07-21T13:36:33.678Z,100546.39
2018-07-21T13:39:01.383Z,100545.84
2018-07-21T13:41:29.173Z,100536.74
2018-07-21T13:43:56.875Z,100538.61
2018-07-21T13:46:24.588Z,100534.19
2018-07-21T13:48:52.300Z,100531.17
2018-07-21T13:51:20.081Z,100524.83
2018-07-21T13:53:47.867Z,100523.78
2018-07-21T13:56:15.602Z,100528.64
2018-07-21T13:58:43.331Z,100520.07
2018-07-21T14:01:11.080Z,100523.31
2018-07-21T14:03:38.813Z,100482.20
2018-07-21T14:06:06.586Z,100515.16
2018-07-21T14:08:34.299Z,100511.25
2018-07-21T14:11:02.046Z,100511.80
2018-07-21T14:13:29.805Z,100513.97
2018-07-21T14:15:58.368Z,100485.30
2018-07-21T14:18:26.151Z,100513.02
2018-07-21T14:20:53.901Z,100508.78
2018-07-21T14:23:21.632Z,100501.06
2018-07-21T14:25:49.420Z,100494.36
2018-07-21T14:28:17.140Z,100494.17
2018-07-21T14:30:44.898Z,100485.34
2018-07-21T14:33:12.622Z,100478.38
2018-07-21T14:35:40.330Z,100482.41
2018-07-21T14:38:08.087Z,100488.67
2018-07-21T14:40:35.810Z,100488.81
2018-07-21T14:43:03.650Z,100486.61
2018-07-21T14:45:31.368Z,100488.16
2018-07-21T14:47:59.098Z,100489.11
2018-07-21T14:50:26.794Z,100488.62
2018-07-21T14:52:54.513Z,100488.78
2018-07-21T14:55:22.277Z,100482.77
2018-07-21T14:57:49.969Z,100478.05
2018-07-21T15:00:17.646Z,100487.23
2018-07-21T15:02:45.303Z,100489.17
2018-07-21T15:05:12.997Z,100487.63
2018-07-21T15:07:40.702Z,100491.89
2018-07-21T15:10:08.455Z,100491.02
2018-07-21T15:12:36.133Z,100489.53
2018-07-21T15:15:04.239Z,100490.55
2018-07-21T15:17:31.946Z,100497.61
2018-07-21T15:19:59.671Z,100491.78
2018-07-21T15:22:27.369Z,100492.61
2018-07-21T15:24:55.113Z,100491.62
2018-07-21T15:27:22.823Z,100495.52
2018-07-21T15:29:50.562Z,100490.67
2018-07-21T15:32:18.333Z,100449.05
2018-07-21T15:34:46.111Z,100487.30
2018-07-21T15:37:13.818Z,100487.80
2018-07-21T15:39:41.534Z,100487.30
2018-07-21T15:42:09.264Z,100485.95
2018-07-21T15:44:37.002Z,100483.95
2018-07-21T15:47:04.725Z,100484.66
2018-07-21T15:49:32.492Z,100489.05
2018-07-21T15:52:00.257Z,100483.99
2018-07-21T15:54:27.949Z,100487.20
2018-07-21T15:56:55.613Z,100491.09
2018-07-21T15:59:23.268Z,100491.89
2018-07-21T16:01:50.999Z,100490.41
2018-07-21T16:04:18.677Z,100496.97
2018-07-21T16:06:46.350Z,100489.29
2018-07-21T16:09:14.099Z,100489.42
2018-07-21T16:11:41.874Z,100489.25
2018-07-21T16:14:09.554Z,100493.16
2018-07-21T16:16:37.281Z,100492.48
2018-07-21T16:19:05.177Z,100488.61
2018-07-21T16:21:32.933Z,100491.14
2018-07-21T16:24:00.710Z,100491.48
2018-07-21T16:26:28.476Z,100490.12
2018-07-21T16:28:56.265Z,100485.95
2018-07-21T16:31:23.977Z,100484.41
2018-07-21T16:33:51.736Z,100481.37
2018-07-21T16:36:19.510Z,100484.74
2018-07-21T16:38:47.250Z,100486.05
2018-07-21T16:41:15.009Z,100478.63
2018-07-21T16:43:42.740Z,100476.77
2018-07-21T16:46:10.626Z,100479.81
2018-07-21T16:48:38.338Z,100479.02
2018-07-21T16:51:06.366Z,100481.68
2018-07-21T16:53:34.092Z,100477.68
2018-07-21T16:56:01.807Z,100475.52
2018-07-21T16:58:29.616Z,100482.72
2018-07-21T17:00:57.297Z,100474.17
2018-07-21T17:03:25.017Z,100467.16
2018-07-21T17:05:52.740Z,100471.66
2018-07-21T17:08:20.497Z,100461.05
2018-07-21T17:10:48.232Z,100471.31
2018-07-21T17:13:16.117Z,100470.63
2018-07-21T17:15:43.878Z,100464.09
2018-07-21T17:18:11.575Z,100468.96
2018-07-21T17:20:39.341Z,100469.28
2018-07-21T17:23:07.110Z,100471.31
2018-07-21T17:25:34.952Z,100469.86
2018-07-21T17:28:02.948Z,100475.03
2018-07-21T17:30:30.701Z,100470.36
2018-07-21T17:32:58.434Z,100481.45
2018-07-21T17:35:26.141Z,100488.89
2018-07-21T17:37:53.876Z,100498.95
2018-07-21T17:40:21.620Z,100503.02
2018-07-21T17:42:49.501Z,100507.69
2018-07-21T17:45:17.244Z,100502.98
2018-07-21T17:47:45.078Z,100497.78
2018-07-21T17:50:12.831Z,100500.97
2018-07-21T17:52:40.693Z,100474.30
2018-07-21T17:55:08.466Z,100515.93
2018-07-21T17:57:36.185Z,100440.61
2018-07-21T18:00:04.415Z,100511.78
2018-07-21T18:02:32.098Z,100514.77
2018-07-21T18:04:59.793Z,100518.32
2018-07-21T18:07:27.644Z,100526.40
2018-07-21T18:09:55.427Z,100528.42
2018-07-21T18:12:23.114Z,100527.22
2018-07-21T18:14:50.863Z,100515.97
2018-07-21T18:17:18.588Z,100512.45
2018-07-21T18:19:46.267Z,100503.39
2018-07-21T18:22:14.484Z,100500.73
2018-07-21T18:24:42.319Z,100506.92
2018-07-21T18:27:10.030Z,100508.43
2018-07-21T18:29:37.735Z,100508.77
2018-07-21T18:32:05.466Z,100504.08
2018-07-21T18:34:33.124Z,100498.89
2018-07-21T20:19:31.989Z,100578.60
2018-07-21T20:21:59.713Z,100587.39
2018-07-21T20:24:27.430Z,100585.95
2018-07-21T20:26:55.200Z,100585.23
2018-07-21T20:29:22.867Z,100573.68
2018-07-21T20:31:50.580Z,100549.66
2018-07-21T20:34:18.297Z,100568.69
2018-07-21T20:36:46.037Z,100563.19
2018-07-21T20:39:13.750Z,100564.52
2018-07-21T20:41:41.449Z,100560.83
2018-07-21T20:44:09.141Z,100547.18
2018-07-21T20:46:36.993Z,100546.88
2018-07-21T20:49:04.765Z,100541.19
2018-07-21T20:51:32.421Z,100551.75
2018-07-21T20:54:00.100Z,100551.75
2018-07-21T20:56:27.983Z,100555.98
2018-07-21T20:58:55.756Z,100552.92
2018-07-21T21:01:23.594Z,100542.69
2018-07-21T21:03:51.375Z,100538.14
2018-07-21T21:06:19.210Z,100537.55
2018-07-21T21:08:46.951Z,100527.16
2018-07-21T21:11:14.738Z,100515.02
2018-07-21T21:13:42.502Z,100500.40
2018-07-21T21:16:10.316Z,100506.69
2018-07-21T21:18:38.112Z,100509.75
2018-07-21T21:21:06.941Z,100520.80
2018-07-21T21:23:34.757Z,100515.65
2018-07-21T21:26:02.486Z,100515.97
2018-07-21T21:28:30.245Z,100511.91
2018-07-21T21:30:58.062Z,100513.39
2018-07-21T21:33:25.876Z,100510.12
2018-07-21T21:35:53.619Z,100509.14
2018-07-21T21:38:21.365Z,100499.89
2018-07-21T21:40:49.185Z,100500.99
2018-07-21T21:43:16.931Z,100486.95
2018-07-21T21:45:44.715Z,100494.11
2018-07-21T21:48:12.483Z,100492.26
2018-07-21T21:50:40.259Z,100496.30
2018-07-21T21:53:08.020Z,100487.56
2018-07-21T21:55:35.767Z,100486.58
2018-07-21T21:58:03.626Z,100485.41
2018-07-21T22:00:52.760Z,100483.80
2018-07-21T22:03:20.555Z,100326.45
2018-07-21T22:05:48.330Z,100489.26
2018-07-21T22:08:16.111Z,100491.11
2018-07-21T22:10:43.822Z,100499.30
2018-07-21T22:13:11.676Z,100493.95
2018-07-21T22:15:39.378Z,100501.95
2018-07-21T22:18:07.127Z,100506.66
2018-07-21T22:20:34.902Z,100510.02
2018-07-21T22:23:02.652Z,100512.03
2018-07-21T22:25:30.374Z,100515.20
2018-07-21T22:27:58.146Z,100509.45
2018-07-21T22:30:25.913Z,100511.87
2018-07-21T22:32:53.653Z,100506.44
2018-07-21T22:35:21.417Z,100499.58
2018-07-21T22:37:49.440Z,100499.59
2018-07-21T22:40:17.165Z,100494.72
2018-07-21T22:42:45.444Z,100477.83
2018-07-21T22:45:13.413Z,100473.09
2018-07-21T22:47:41.207Z,100466.78
2018-07-21T22:50:09.103Z,100464.77
2018-07-21T22:52:36.934Z,100465.59
2018-07-21T22:55:04.727Z,100460.41
2018-07-21T22:57:32.648Z,100474.37
2018-07-21T23:00:00.549Z,100466.80
2018-07-21T23:02:28.264Z,100459.45
2018-07-21T23:04:56.126Z,100462.48
2018-07-21T23:07:23.889Z,100461.77
2018-07-21T23:09:51.649Z,100461.72
2018-07-21T23:12:19.397Z,100462.03
2018-07-21T23:14:47.179Z,100456.60
2018-07-21T23:17:14.925Z,100455.86
2018-07-21T23:19:42.745Z,100455.70
2018-07-21T23:22:10.473Z,100438.61
2018-07-21T23:24:38.262Z,100440.19
2018-07-21T23:27:06.004Z,100440.48
2018-07-21T23:29:33.811Z,100437.63
2018-07-21T23:32:01.604Z,100336.52
2018-07-21T23:34:29.293Z,100443.11
2018-07-21T23:36:57.085Z,100440.95
2018-07-21T23:39:24.838Z,100439.63
2018-07-21T23:41:52.646Z,100435.36
2018-07-21T23:44:20.745Z,100431.70
2018-07-21T23:46:48.518Z,100433.37
2018-07-21T23:49:16.293Z,100430.41
2018-07-21T23:51:44.035Z,100427.41
2018-07-21T23:54:11.791Z,100428.25
2018-07-21T23:56:39.582Z,100430.73
2018-07-21T23:59:07.867Z,100428.73
